<?xml version="1.0" encoding="utf-8"?>
<gpx xmlns:xsi="http://www.w3.org/2001/XMLSchema-instance" xmlns:xsd="http://www.w3.org/2001/XMLSchema" version="1.1" creator="Shapelink.com" xmlns="http://www.topografix.com/GPX/1/1" xmlns:gpxtpx="http://www.garmin.com/xmlschemas/TrackPointExtension/v1">
  <metadata>
    <name>Orientering 3.33 km, 2012-03-03</name>
    <desc></desc>
    <author><name>Dennis Rehn</name></author> 
    <time>2012-03-03T10:03:19Z</time>
  </metadata>
  <trk>
    <name>Orientering 3.33 km, 2012-03-03</name>
    <trkseg>
      <trkpt lat="60.4818348189" lon="22.1637249135">
        <ele>6.2</ele>
        <time>2012-03-03T10:03:19Z</time>
      </trkpt>
      <trkpt lat="60.4817749721" lon="22.1644502831">
        <ele>6.2</ele>
        <time>2012-03-03T10:03:26Z</time>
      </trkpt>
      <trkpt lat="60.4816695278" lon="22.1645252173">
        <ele>6.2</ele>
        <time>2012-03-03T10:03:28Z</time>
      </trkpt>
      <trkpt lat="60.4814279615" lon="22.1648270496">
        <ele>6.2</ele>
        <time>2012-03-03T10:03:36Z</time>
      </trkpt>
      <trkpt lat="60.4813405383" lon="22.1651210866">
        <ele>6.2</ele>
        <time>2012-03-03T10:03:41Z</time>
      </trkpt>
      <trkpt lat="60.4812356807" lon="22.1654425325">
        <ele>5.8</ele>
        <time>2012-03-03T10:03:46Z</time>
      </trkpt>
      <trkpt lat="60.4811787676" lon="22.1656816681">
        <ele>5.4</ele>
        <time>2012-03-03T10:03:50Z</time>
      </trkpt>
      <trkpt lat="60.4812053382" lon="22.1659109969">
        <ele>5</ele>
        <time>2012-03-03T10:03:54Z</time>
      </trkpt>
      <trkpt lat="60.4811164063" lon="22.1665696466">
        <ele>3.8</ele>
        <time>2012-03-03T10:04:04Z</time>
      </trkpt>
      <trkpt lat="60.4811039172" lon="22.1665317604">
        <ele>3.2</ele>
        <time>2012-03-03T10:04:08Z</time>
      </trkpt>
      <trkpt lat="60.4810861476" lon="22.1665305031">
        <ele>3.2</ele>
        <time>2012-03-03T10:04:09Z</time>
      </trkpt>
      <trkpt lat="60.481010962" lon="22.1666726601">
        <ele>2.8</ele>
        <time>2012-03-03T10:04:12Z</time>
      </trkpt>
      <trkpt lat="60.4808574056" lon="22.1669810302">
        <ele>2.6</ele>
        <time>2012-03-03T10:04:17Z</time>
      </trkpt>
      <trkpt lat="60.4807766879" lon="22.1670618317">
        <ele>2.4</ele>
        <time>2012-03-03T10:04:19Z</time>
      </trkpt>
      <trkpt lat="60.4806113968" lon="22.1671385261">
        <ele>2</ele>
        <time>2012-03-03T10:04:23Z</time>
      </trkpt>
      <trkpt lat="60.4804973191" lon="22.1671579721">
        <ele>1.4</ele>
        <time>2012-03-03T10:04:26Z</time>
      </trkpt>
      <trkpt lat="60.4804177749" lon="22.1671583074">
        <ele>1.2</ele>
        <time>2012-03-03T10:04:28Z</time>
      </trkpt>
      <trkpt lat="60.480317695" lon="22.1671578045">
        <ele>0.4</ele>
        <time>2012-03-03T10:04:32Z</time>
      </trkpt>
      <trkpt lat="60.4803240653" lon="22.167049678">
        <ele>0</ele>
        <time>2012-03-03T10:04:34Z</time>
      </trkpt>
      <trkpt lat="60.4803135879" lon="22.1669699661">
        <ele>0</ele>
        <time>2012-03-03T10:04:36Z</time>
      </trkpt>
      <trkpt lat="60.480238989" lon="22.1670288909">
        <ele>0</ele>
        <time>2012-03-03T10:04:39Z</time>
      </trkpt>
      <trkpt lat="60.4802216384" lon="22.1670792661">
        <ele>0</ele>
        <time>2012-03-03T10:04:40Z</time>
      </trkpt>
      <trkpt lat="60.480126001" lon="22.16738772">
        <ele>0</ele>
        <time>2012-03-03T10:04:45Z</time>
      </trkpt>
      <trkpt lat="60.4800992627" lon="22.1675274463">
        <ele>0</ele>
        <time>2012-03-03T10:04:47Z</time>
      </trkpt>
      <trkpt lat="60.4801828302" lon="22.1676849422">
        <ele>0</ele>
        <time>2012-03-03T10:04:51Z</time>
      </trkpt>
      <trkpt lat="60.4802238177" lon="22.1676834334">
        <ele>0</ele>
        <time>2012-03-03T10:04:52Z</time>
      </trkpt>
      <trkpt lat="60.4804383106" lon="22.1676908095">
        <ele>0</ele>
        <time>2012-03-03T10:04:57Z</time>
      </trkpt>
      <trkpt lat="60.4806396438" lon="22.1676906419">
        <ele>0</ele>
        <time>2012-03-03T10:05:02Z</time>
      </trkpt>
      <trkpt lat="60.4806740934" lon="22.167685026">
        <ele>0</ele>
        <time>2012-03-03T10:05:03Z</time>
      </trkpt>
      <trkpt lat="60.4808894244" lon="22.1676883788">
        <ele>0</ele>
        <time>2012-03-03T10:05:08Z</time>
      </trkpt>
      <trkpt lat="60.481019763" lon="22.1676937432">
        <ele>0</ele>
        <time>2012-03-03T10:05:11Z</time>
      </trkpt>
      <trkpt lat="60.4810747482" lon="22.1675722894">
        <ele>0</ele>
        <time>2012-03-03T10:05:15Z</time>
      </trkpt>
      <trkpt lat="60.4810822081" lon="22.1675344871">
        <ele>0</ele>
        <time>2012-03-03T10:05:16Z</time>
      </trkpt>
      <trkpt lat="60.4810989719" lon="22.1676437032">
        <ele>0</ele>
        <time>2012-03-03T10:05:19Z</time>
      </trkpt>
      <trkpt lat="60.4810937751" lon="22.1676836011">
        <ele>0</ele>
        <time>2012-03-03T10:05:20Z</time>
      </trkpt>
      <trkpt lat="60.4811177474" lon="22.1677633129">
        <ele>0</ele>
        <time>2012-03-03T10:05:23Z</time>
      </trkpt>
      <trkpt lat="60.4811554659" lon="22.1677626424">
        <ele>0</ele>
        <time>2012-03-03T10:05:24Z</time>
      </trkpt>
      <trkpt lat="60.4813446454" lon="22.1677825075">
        <ele>0</ele>
        <time>2012-03-03T10:05:29Z</time>
      </trkpt>
      <trkpt lat="60.4815306398" lon="22.1677788195">
        <ele>0.2</ele>
        <time>2012-03-03T10:05:34Z</time>
      </trkpt>
      <trkpt lat="60.4817105992" lon="22.1676622272">
        <ele>1</ele>
        <time>2012-03-03T10:05:39Z</time>
      </trkpt>
      <trkpt lat="60.4818506607" lon="22.1675680147">
        <ele>1.2</ele>
        <time>2012-03-03T10:05:43Z</time>
      </trkpt>
      <trkpt lat="60.4820353978" lon="22.1673981136">
        <ele>1.6</ele>
        <time>2012-03-03T10:05:48Z</time>
      </trkpt>
      <trkpt lat="60.4821852662" lon="22.1672579682">
        <ele>1.8</ele>
        <time>2012-03-03T10:05:52Z</time>
      </trkpt>
      <trkpt lat="60.4823338772" lon="22.1671231034">
        <ele>1.8</ele>
        <time>2012-03-03T10:05:56Z</time>
      </trkpt>
      <trkpt lat="60.4825249846" lon="22.1669462453">
        <ele>2</ele>
        <time>2012-03-03T10:06:01Z</time>
      </trkpt>
      <trkpt lat="60.4826702429" lon="22.1668174155">
        <ele>2</ele>
        <time>2012-03-03T10:06:05Z</time>
      </trkpt>
      <trkpt lat="60.4829140724" lon="22.1665991509">
        <ele>2</ele>
        <time>2012-03-03T10:06:12Z</time>
      </trkpt>
      <trkpt lat="60.4830610071" lon="22.1665438303">
        <ele>2</ele>
        <time>2012-03-03T10:06:16Z</time>
      </trkpt>
      <trkpt lat="60.4830946185" lon="22.1665793696">
        <ele>2</ele>
        <time>2012-03-03T10:06:17Z</time>
      </trkpt>
      <trkpt lat="60.4832760866" lon="22.1667979695">
        <ele>2</ele>
        <time>2012-03-03T10:06:22Z</time>
      </trkpt>
      <trkpt lat="60.4833095304" lon="22.166838035">
        <ele>2</ele>
        <time>2012-03-03T10:06:23Z</time>
      </trkpt>
      <trkpt lat="60.4834063413" lon="22.1671611572">
        <ele>2.4</ele>
        <time>2012-03-03T10:06:28Z</time>
      </trkpt>
      <trkpt lat="60.483350015" lon="22.1675287036">
        <ele>3</ele>
        <time>2012-03-03T10:06:33Z</time>
      </trkpt>
      <trkpt lat="60.4833292279" lon="22.1678121794">
        <ele>3.4</ele>
        <time>2012-03-03T10:06:37Z</time>
      </trkpt>
      <trkpt lat="60.4833832073" lon="22.1679277658">
        <ele>3.6</ele>
        <time>2012-03-03T10:06:39Z</time>
      </trkpt>
      <trkpt lat="60.4834647632" lon="22.1680575176">
        <ele>3.6</ele>
        <time>2012-03-03T10:06:42Z</time>
      </trkpt>
      <trkpt lat="60.4835217601" lon="22.1683131656">
        <ele>3.8</ele>
        <time>2012-03-03T10:06:46Z</time>
      </trkpt>
      <trkpt lat="60.483576913" lon="22.1684107309">
        <ele>3.8</ele>
        <time>2012-03-03T10:06:48Z</time>
      </trkpt>
      <trkpt lat="60.4837032282" lon="22.1685858288">
        <ele>4</ele>
        <time>2012-03-03T10:06:52Z</time>
      </trkpt>
      <trkpt lat="60.4838495762" lon="22.1688109666">
        <ele>4</ele>
        <time>2012-03-03T10:06:57Z</time>
      </trkpt>
      <trkpt lat="60.4839997799" lon="22.1690093662">
        <ele>4</ele>
        <time>2012-03-03T10:07:02Z</time>
      </trkpt>
      <trkpt lat="60.4840100896" lon="22.1689690493">
        <ele>4</ele>
        <time>2012-03-03T10:07:03Z</time>
      </trkpt>
      <trkpt lat="60.4840158731" lon="22.1689549677">
        <ele>4</ele>
        <time>2012-03-03T10:07:04Z</time>
      </trkpt>
      <trkpt lat="60.4840878736" lon="22.1688128945">
        <ele>4</ele>
        <time>2012-03-03T10:07:09Z</time>
      </trkpt>
      <trkpt lat="60.4841510732" lon="22.1685585876">
        <ele>4</ele>
        <time>2012-03-03T10:07:13Z</time>
      </trkpt>
      <trkpt lat="60.4841809127" lon="22.1685185221">
        <ele>4</ele>
        <time>2012-03-03T10:07:14Z</time>
      </trkpt>
      <trkpt lat="60.4843835032" lon="22.1683207093">
        <ele>4</ele>
        <time>2012-03-03T10:07:20Z</time>
      </trkpt>
      <trkpt lat="60.4844894505" lon="22.1682968209">
        <ele>4</ele>
        <time>2012-03-03T10:07:23Z</time>
      </trkpt>
      <trkpt lat="60.4845301027" lon="22.1682819849">
        <ele>4</ele>
        <time>2012-03-03T10:07:24Z</time>
      </trkpt>
      <trkpt lat="60.484551728" lon="22.1682422547">
        <ele>4</ele>
        <time>2012-03-03T10:07:25Z</time>
      </trkpt>
      <trkpt lat="60.4846122453" lon="22.1680050469">
        <ele>4</ele>
        <time>2012-03-03T10:07:29Z</time>
      </trkpt>
      <trkpt lat="60.4846080543" lon="22.1679681666">
        <ele>4</ele>
        <time>2012-03-03T10:07:30Z</time>
      </trkpt>
      <trkpt lat="60.4845499678" lon="22.1678866945">
        <ele>4</ele>
        <time>2012-03-03T10:07:33Z</time>
      </trkpt>
      <trkpt lat="60.4845015204" lon="22.1678393368">
        <ele>4</ele>
        <time>2012-03-03T10:07:35Z</time>
      </trkpt>
      <trkpt lat="60.4845242353" lon="22.1678167056">
        <ele>4</ele>
        <time>2012-03-03T10:07:39Z</time>
      </trkpt>
      <trkpt lat="60.4845207988" lon="22.1678162027">
        <ele>4</ele>
        <time>2012-03-03T10:07:40Z</time>
      </trkpt>
      <trkpt lat="60.4844333755" lon="22.1677749638">
        <ele>4</ele>
        <time>2012-03-03T10:07:44Z</time>
      </trkpt>
      <trkpt lat="60.4842327967" lon="22.1676170488">
        <ele>3.6</ele>
        <time>2012-03-03T10:07:50Z</time>
      </trkpt>
      <trkpt lat="60.4841949943" lon="22.1676079125">
        <ele>3.4</ele>
        <time>2012-03-03T10:07:51Z</time>
      </trkpt>
      <trkpt lat="60.4840225786" lon="22.1678364031">
        <ele>2.8</ele>
        <time>2012-03-03T10:07:56Z</time>
      </trkpt>
      <trkpt lat="60.483869609" lon="22.1677723654">
        <ele>2.6</ele>
        <time>2012-03-03T10:08:00Z</time>
      </trkpt>
      <trkpt lat="60.4837626559" lon="22.167673459">
        <ele>2.4</ele>
        <time>2012-03-03T10:08:03Z</time>
      </trkpt>
      <trkpt lat="60.4834124601" lon="22.167516466">
        <ele>2.2</ele>
        <time>2012-03-03T10:08:13Z</time>
      </trkpt>
      <trkpt lat="60.483404665" lon="22.1674986125">
        <ele>2.2</ele>
        <time>2012-03-03T10:08:14Z</time>
      </trkpt>
      <trkpt lat="60.4834411262" lon="22.1673092654">
        <ele>2</ele>
        <time>2012-03-03T10:08:18Z</time>
      </trkpt>
      <trkpt lat="60.4834368515" lon="22.1673119476">
        <ele>2</ele>
        <time>2012-03-03T10:08:19Z</time>
      </trkpt>
      <trkpt lat="60.4833350952" lon="22.1674204932">
        <ele>2</ele>
        <time>2012-03-03T10:08:23Z</time>
      </trkpt>
      <trkpt lat="60.4832209337" lon="22.1676069905">
        <ele>2</ele>
        <time>2012-03-03T10:08:27Z</time>
      </trkpt>
      <trkpt lat="60.4831098735" lon="22.1676363272">
        <ele>2</ele>
        <time>2012-03-03T10:08:31Z</time>
      </trkpt>
      <trkpt lat="60.4830196005" lon="22.1677152847">
        <ele>2</ele>
        <time>2012-03-03T10:08:35Z</time>
      </trkpt>
      <trkpt lat="60.4830455844" lon="22.1678360678">
        <ele>2</ele>
        <time>2012-03-03T10:08:38Z</time>
      </trkpt>
      <trkpt lat="60.4831136454" lon="22.1678501494">
        <ele>2</ele>
        <time>2012-03-03T10:08:41Z</time>
      </trkpt>
      <trkpt lat="60.4830636055" lon="22.1678917237">
        <ele>2</ele>
        <time>2012-03-03T10:08:49Z</time>
      </trkpt>
      <trkpt lat="60.4829407268" lon="22.1680255826">
        <ele>2</ele>
        <time>2012-03-03T10:08:53Z</time>
      </trkpt>
      <trkpt lat="60.4827619409" lon="22.1682042847">
        <ele>2</ele>
        <time>2012-03-03T10:08:58Z</time>
      </trkpt>
      <trkpt lat="60.4825871783" lon="22.1683877645">
        <ele>2.6</ele>
        <time>2012-03-03T10:09:03Z</time>
      </trkpt>
      <trkpt lat="60.4822539977" lon="22.1688146547">
        <ele>5</ele>
        <time>2012-03-03T10:09:14Z</time>
      </trkpt>
      <trkpt lat="60.4821395848" lon="22.1689428139">
        <ele>6.2</ele>
        <time>2012-03-03T10:09:18Z</time>
      </trkpt>
      <trkpt lat="60.4819453762" lon="22.1691364358">
        <ele>7.8</ele>
        <time>2012-03-03T10:09:24Z</time>
      </trkpt>
      <trkpt lat="60.4818525885" lon="22.1692232723">
        <ele>8.6</ele>
        <time>2012-03-03T10:09:27Z</time>
      </trkpt>
      <trkpt lat="60.4818725375" lon="22.1694416208">
        <ele>9.4</ele>
        <time>2012-03-03T10:09:31Z</time>
      </trkpt>
      <trkpt lat="60.4819656604" lon="22.1697530084">
        <ele>10.8</ele>
        <time>2012-03-03T10:09:36Z</time>
      </trkpt>
      <trkpt lat="60.4820448693" lon="22.1700937326">
        <ele>11.4</ele>
        <time>2012-03-03T10:09:41Z</time>
      </trkpt>
      <trkpt lat="60.4821301971" lon="22.1704249015">
        <ele>12.4</ele>
        <time>2012-03-03T10:09:46Z</time>
      </trkpt>
      <trkpt lat="60.4821573544" lon="22.1704643802">
        <ele>12.8</ele>
        <time>2012-03-03T10:09:47Z</time>
      </trkpt>
      <trkpt lat="60.4822801493" lon="22.1704611951">
        <ele>13.2</ele>
        <time>2012-03-03T10:09:50Z</time>
      </trkpt>
      <trkpt lat="60.4824053748" lon="22.1703899489">
        <ele>13.6</ele>
        <time>2012-03-03T10:09:53Z</time>
      </trkpt>
      <trkpt lat="60.4825032754" lon="22.1704392345">
        <ele>14.6</ele>
        <time>2012-03-03T10:09:58Z</time>
      </trkpt>
      <trkpt lat="60.4824469491" lon="22.1704612789">
        <ele>15.6</ele>
        <time>2012-03-03T10:10:03Z</time>
      </trkpt>
      <trkpt lat="60.482315018" lon="22.1705870912">
        <ele>17</ele>
        <time>2012-03-03T10:10:09Z</time>
      </trkpt>
      <trkpt lat="60.4821378246" lon="22.1707522985">
        <ele>17.8</ele>
        <time>2012-03-03T10:10:14Z</time>
      </trkpt>
      <trkpt lat="60.4819924825" lon="22.1708852354">
        <ele>18.6</ele>
        <time>2012-03-03T10:10:18Z</time>
      </trkpt>
      <trkpt lat="60.4818061528" lon="22.1710532925">
        <ele>19.4</ele>
        <time>2012-03-03T10:10:23Z</time>
      </trkpt>
      <trkpt lat="60.4817665064" lon="22.171085479">
        <ele>19.6</ele>
        <time>2012-03-03T10:10:24Z</time>
      </trkpt>
      <trkpt lat="60.4815508401" lon="22.1712630915">
        <ele>20.8</ele>
        <time>2012-03-03T10:10:30Z</time>
      </trkpt>
      <trkpt lat="60.4813871416" lon="22.1713775044">
        <ele>21.6</ele>
        <time>2012-03-03T10:10:35Z</time>
      </trkpt>
      <trkpt lat="60.4812175758" lon="22.1713982915">
        <ele>22.6</ele>
        <time>2012-03-03T10:10:40Z</time>
      </trkpt>
      <trkpt lat="60.4810462498" lon="22.1714294722">
        <ele>23.6</ele>
        <time>2012-03-03T10:10:45Z</time>
      </trkpt>
      <trkpt lat="60.4808647816" lon="22.1714282149">
        <ele>24.8</ele>
        <time>2012-03-03T10:10:50Z</time>
      </trkpt>
      <trkpt lat="60.4806824753" lon="22.1713532807">
        <ele>26.2</ele>
        <time>2012-03-03T10:10:55Z</time>
      </trkpt>
      <trkpt lat="60.4804969839" lon="22.1712548772">
        <ele>27.4</ele>
        <time>2012-03-03T10:11:00Z</time>
      </trkpt>
      <trkpt lat="60.4804584271" lon="22.1710289012">
        <ele>28</ele>
        <time>2012-03-03T10:11:03Z</time>
      </trkpt>
      <trkpt lat="60.4803887735" lon="22.1705635381">
        <ele>29.4</ele>
        <time>2012-03-03T10:11:09Z</time>
      </trkpt>
      <trkpt lat="60.4803633764" lon="22.1701596143">
        <ele>30.2</ele>
        <time>2012-03-03T10:11:14Z</time>
      </trkpt>
      <trkpt lat="60.4803901984" lon="22.1698151182">
        <ele>30.8</ele>
        <time>2012-03-03T10:11:19Z</time>
      </trkpt>
      <trkpt lat="60.4803675673" lon="22.1694644195">
        <ele>31.6</ele>
        <time>2012-03-03T10:11:24Z</time>
      </trkpt>
      <trkpt lat="60.4802694153" lon="22.1692743181">
        <ele>32.2</ele>
        <time>2012-03-03T10:11:28Z</time>
      </trkpt>
      <trkpt lat="60.4801078122" lon="22.1692098612">
        <ele>32.8</ele>
        <time>2012-03-03T10:11:33Z</time>
      </trkpt>
      <trkpt lat="60.4800163657" lon="22.1690600767">
        <ele>33</ele>
        <time>2012-03-03T10:11:36Z</time>
      </trkpt>
      <trkpt lat="60.4798998573" lon="22.1687226214">
        <ele>33.2</ele>
        <time>2012-03-03T10:11:41Z</time>
      </trkpt>
      <trkpt lat="60.4798768071" lon="22.1686550633">
        <ele>33.2</ele>
        <time>2012-03-03T10:11:42Z</time>
      </trkpt>
      <trkpt lat="60.4797715304" lon="22.1686211166">
        <ele>32.8</ele>
        <time>2012-03-03T10:11:46Z</time>
      </trkpt>
      <trkpt lat="60.479732806" lon="22.1687034268">
        <ele>32.6</ele>
        <time>2012-03-03T10:11:48Z</time>
      </trkpt>
      <trkpt lat="60.4796050659" lon="22.1689036704">
        <ele>32.2</ele>
        <time>2012-03-03T10:11:53Z</time>
      </trkpt>
      <trkpt lat="60.479482774" lon="22.1690245374">
        <ele>31.8</ele>
        <time>2012-03-03T10:11:57Z</time>
      </trkpt>
      <trkpt lat="60.4794120307" lon="22.1690733201">
        <ele>31.8</ele>
        <time>2012-03-03T10:11:59Z</time>
      </trkpt>
      <trkpt lat="60.4792754057" lon="22.1691806084">
        <ele>31.6</ele>
        <time>2012-03-03T10:12:03Z</time>
      </trkpt>
      <trkpt lat="60.4790995535" lon="22.1692725579">
        <ele>31.6</ele>
        <time>2012-03-03T10:12:08Z</time>
      </trkpt>
      <trkpt lat="60.4789537084" lon="22.1693510963">
        <ele>31.6</ele>
        <time>2012-03-03T10:12:13Z</time>
      </trkpt>
      <trkpt lat="60.4788191789" lon="22.1694110268">
        <ele>31.4</ele>
        <time>2012-03-03T10:12:17Z</time>
      </trkpt>
      <trkpt lat="60.4786451707" lon="22.1694887271">
        <ele>31.4</ele>
        <time>2012-03-03T10:12:22Z</time>
      </trkpt>
      <trkpt lat="60.4784594278" lon="22.1695761503">
        <ele>32.2</ele>
        <time>2012-03-03T10:12:27Z</time>
      </trkpt>
      <trkpt lat="60.4782580945" lon="22.1696705305">
        <ele>32.8</ele>
        <time>2012-03-03T10:12:32Z</time>
      </trkpt>
      <trkpt lat="60.478061539" lon="22.1697500747">
        <ele>33</ele>
        <time>2012-03-03T10:12:37Z</time>
      </trkpt>
      <trkpt lat="60.4780245748" lon="22.1697750528">
        <ele>33</ele>
        <time>2012-03-03T10:12:38Z</time>
      </trkpt>
      <trkpt lat="60.4779006065" lon="22.1698986858">
        <ele>33.2</ele>
        <time>2012-03-03T10:12:43Z</time>
      </trkpt>
      <trkpt lat="60.4778919732" lon="22.1699176289">
        <ele>33.2</ele>
        <time>2012-03-03T10:12:44Z</time>
      </trkpt>
      <trkpt lat="60.4778721919" lon="22.170062049">
        <ele>33.4</ele>
        <time>2012-03-03T10:12:49Z</time>
      </trkpt>
      <trkpt lat="60.4778743712" lon="22.1701193812">
        <ele>33.4</ele>
        <time>2012-03-03T10:12:50Z</time>
      </trkpt>
      <trkpt lat="60.4778825016" lon="22.1702433495">
        <ele>33.4</ele>
        <time>2012-03-03T10:12:54Z</time>
      </trkpt>
      <trkpt lat="60.4778687553" lon="22.1700815788">
        <ele>33.4</ele>
        <time>2012-03-03T10:13:03Z</time>
      </trkpt>
      <trkpt lat="60.4778791488" lon="22.169777735">
        <ele>33.4</ele>
        <time>2012-03-03T10:13:08Z</time>
      </trkpt>
      <trkpt lat="60.4777839305" lon="22.1695731328">
        <ele>33.4</ele>
        <time>2012-03-03T10:13:12Z</time>
      </trkpt>
      <trkpt lat="60.4776490657" lon="22.1694738911">
        <ele>33.4</ele>
        <time>2012-03-03T10:13:16Z</time>
      </trkpt>
      <trkpt lat="60.4776167954" lon="22.1694397768">
        <ele>33.4</ele>
        <time>2012-03-03T10:13:17Z</time>
      </trkpt>
      <trkpt lat="60.4774168032" lon="22.1692217635">
        <ele>33.4</ele>
        <time>2012-03-03T10:13:23Z</time>
      </trkpt>
      <trkpt lat="60.4773355826" lon="22.1691072668">
        <ele>33.4</ele>
        <time>2012-03-03T10:13:26Z</time>
      </trkpt>
      <trkpt lat="60.4773341577" lon="22.1689550515">
        <ele>33.4</ele>
        <time>2012-03-03T10:13:30Z</time>
      </trkpt>
      <trkpt lat="60.4773562021" lon="22.1686647863">
        <ele>33.4</ele>
        <time>2012-03-03T10:13:35Z</time>
      </trkpt>
      <trkpt lat="60.4773669309" lon="22.1685501219">
        <ele>33.4</ele>
        <time>2012-03-03T10:13:37Z</time>
      </trkpt>
      <trkpt lat="60.4773429587" lon="22.1682829907">
        <ele>33</ele>
        <time>2012-03-03T10:13:41Z</time>
      </trkpt>
      <trkpt lat="60.4773328166" lon="22.1680825795">
        <ele>32.6</ele>
        <time>2012-03-03T10:13:44Z</time>
      </trkpt>
      <trkpt lat="60.477326614" lon="22.1677731198">
        <ele>32.2</ele>
        <time>2012-03-03T10:13:49Z</time>
      </trkpt>
      <trkpt lat="60.4773425396" lon="22.1674641629">
        <ele>30.8</ele>
        <time>2012-03-03T10:13:55Z</time>
      </trkpt>
      <trkpt lat="60.4773622371" lon="22.1672428808">
        <ele>29.4</ele>
        <time>2012-03-03T10:14:00Z</time>
      </trkpt>
      <trkpt lat="60.4773642487" lon="22.1670400388">
        <ele>28.4</ele>
        <time>2012-03-03T10:14:05Z</time>
      </trkpt>
      <trkpt lat="60.4773385163" lon="22.166779697">
        <ele>26.6</ele>
        <time>2012-03-03T10:14:12Z</time>
      </trkpt>
      <trkpt lat="60.47729141" lon="22.1665714906">
        <ele>25.4</ele>
        <time>2012-03-03T10:14:18Z</time>
      </trkpt>
      <trkpt lat="60.4772855427" lon="22.1664380507">
        <ele>24.8</ele>
        <time>2012-03-03T10:14:21Z</time>
      </trkpt>
      <trkpt lat="60.4772204153" lon="22.1662906969">
        <ele>24</ele>
        <time>2012-03-03T10:14:26Z</time>
      </trkpt>
      <trkpt lat="60.4771785058" lon="22.1661939698">
        <ele>23.8</ele>
        <time>2012-03-03T10:14:29Z</time>
      </trkpt>
      <trkpt lat="60.477092759" lon="22.1660466998">
        <ele>23.4</ele>
        <time>2012-03-03T10:14:35Z</time>
      </trkpt>
      <trkpt lat="60.4770832874" lon="22.1660012699">
        <ele>23.4</ele>
        <time>2012-03-03T10:14:36Z</time>
      </trkpt>
      <trkpt lat="60.4770087723" lon="22.1658337157">
        <ele>23.4</ele>
        <time>2012-03-03T10:14:40Z</time>
      </trkpt>
      <trkpt lat="60.4768545454" lon="22.1655938258">
        <ele>23.4</ele>
        <time>2012-03-03T10:14:46Z</time>
      </trkpt>
      <trkpt lat="60.4767053476" lon="22.1653112719">
        <ele>24.2</ele>
        <time>2012-03-03T10:14:52Z</time>
      </trkpt>
      <trkpt lat="60.4765669624" lon="22.1651083461">
        <ele>25.2</ele>
        <time>2012-03-03T10:14:57Z</time>
      </trkpt>
      <trkpt lat="60.4764095503" lon="22.1649334159">
        <ele>26</ele>
        <time>2012-03-03T10:15:02Z</time>
      </trkpt>
      <trkpt lat="60.4762860011" lon="22.1647972938">
        <ele>26.6</ele>
        <time>2012-03-03T10:15:06Z</time>
      </trkpt>
      <trkpt lat="60.4762140006" lon="22.1647335914">
        <ele>27.6</ele>
        <time>2012-03-03T10:15:10Z</time>
      </trkpt>
      <trkpt lat="60.476205032" lon="22.1647366089">
        <ele>27.8</ele>
        <time>2012-03-03T10:15:11Z</time>
      </trkpt>
      <trkpt lat="60.476163793" lon="22.1648827892">
        <ele>28.2</ele>
        <time>2012-03-03T10:15:15Z</time>
      </trkpt>
      <trkpt lat="60.476059606" lon="22.1652046541">
        <ele>28.6</ele>
        <time>2012-03-03T10:15:20Z</time>
      </trkpt>
      <trkpt lat="60.4760407467" lon="22.1652676022">
        <ele>29</ele>
        <time>2012-03-03T10:15:21Z</time>
      </trkpt>
      <trkpt lat="60.4759963226" lon="22.1653789138">
        <ele>29.4</ele>
        <time>2012-03-03T10:15:23Z</time>
      </trkpt>
      <trkpt lat="60.475860452" lon="22.1653391836">
        <ele>30.2</ele>
        <time>2012-03-03T10:15:27Z</time>
      </trkpt>
      <trkpt lat="60.4756711049" lon="22.1651577993">
        <ele>30.6</ele>
        <time>2012-03-03T10:15:32Z</time>
      </trkpt>
      <trkpt lat="60.4755212366" lon="22.1650578033">
        <ele>31.4</ele>
        <time>2012-03-03T10:15:37Z</time>
      </trkpt>
      <trkpt lat="60.4755164589" lon="22.165057468">
        <ele>32</ele>
        <time>2012-03-03T10:15:40Z</time>
      </trkpt>
      <trkpt lat="60.4755659959" lon="22.1648177456">
        <ele>32.6</ele>
        <time>2012-03-03T10:15:45Z</time>
      </trkpt>
      <trkpt lat="60.4755018744" lon="22.1646539633">
        <ele>32.8</ele>
        <time>2012-03-03T10:15:49Z</time>
      </trkpt>
      <trkpt lat="60.4754514991" lon="22.1648033288">
        <ele>33</ele>
        <time>2012-03-03T10:15:52Z</time>
      </trkpt>
      <trkpt lat="60.4754346515" lon="22.1648635946">
        <ele>33</ele>
        <time>2012-03-03T10:15:53Z</time>
      </trkpt>
      <trkpt lat="60.4754669218" lon="22.1647619222">
        <ele>33.2</ele>
        <time>2012-03-03T10:16:01Z</time>
      </trkpt>
      <trkpt lat="60.4755629784" lon="22.16438876">
        <ele>34.2</ele>
        <time>2012-03-03T10:16:06Z</time>
      </trkpt>
      <trkpt lat="60.475622909" lon="22.1640768695">
        <ele>34.6</ele>
        <time>2012-03-03T10:16:10Z</time>
      </trkpt>
      <trkpt lat="60.4756297822" lon="22.1639859259">
        <ele>34.8</ele>
        <time>2012-03-03T10:16:11Z</time>
      </trkpt>
      <trkpt lat="60.4757060575" lon="22.1635847682">
        <ele>35</ele>
        <time>2012-03-03T10:16:16Z</time>
      </trkpt>
      <trkpt lat="60.47572433" lon="22.1635081576">
        <ele>35.2</ele>
        <time>2012-03-03T10:16:17Z</time>
      </trkpt>
      <trkpt lat="60.4757431054" lon="22.1634347321">
        <ele>35.2</ele>
        <time>2012-03-03T10:16:18Z</time>
      </trkpt>
      <trkpt lat="60.4758064726" lon="22.1632246817">
        <ele>35.2</ele>
        <time>2012-03-03T10:16:21Z</time>
      </trkpt>
      <trkpt lat="60.4758696721" lon="22.1630130388">
        <ele>35.4</ele>
        <time>2012-03-03T10:16:24Z</time>
      </trkpt>
      <trkpt lat="60.4759342128" lon="22.1628141363">
        <ele>35.4</ele>
        <time>2012-03-03T10:16:27Z</time>
      </trkpt>
      <trkpt lat="60.4759683271" lon="22.1625468375">
        <ele>35.4</ele>
        <time>2012-03-03T10:16:31Z</time>
      </trkpt>
      <trkpt lat="60.4758150222" lon="22.162355814">
        <ele>35.4</ele>
        <time>2012-03-03T10:16:36Z</time>
      </trkpt>
      <trkpt lat="60.4757773874" lon="22.1623116414">
        <ele>35.6</ele>
        <time>2012-03-03T10:16:37Z</time>
      </trkpt>
      <trkpt lat="60.4757231565" lon="22.1622401438">
        <ele>36</ele>
        <time>2012-03-03T10:16:39Z</time>
      </trkpt>
      <trkpt lat="60.4757120086" lon="22.1622257269">
        <ele>36.8</ele>
        <time>2012-03-03T10:16:45Z</time>
      </trkpt>
      <trkpt lat="60.4757203905" lon="22.1622444185">
        <ele>36.8</ele>
        <time>2012-03-03T10:16:46Z</time>
      </trkpt>
      <trkpt lat="60.4757845959" lon="22.1622203625">
        <ele>37.2</ele>
        <time>2012-03-03T10:16:50Z</time>
      </trkpt>
      <trkpt lat="60.4758754556" lon="22.1622193566">
        <ele>37.6</ele>
        <time>2012-03-03T10:16:53Z</time>
      </trkpt>
      <trkpt lat="60.4760607795" lon="22.1622685584">
        <ele>38.4</ele>
        <time>2012-03-03T10:16:58Z</time>
      </trkpt>
      <trkpt lat="60.4762040261" lon="22.1620826479">
        <ele>38.8</ele>
        <time>2012-03-03T10:17:02Z</time>
      </trkpt>
      <trkpt lat="60.4762766134" lon="22.162027914">
        <ele>39</ele>
        <time>2012-03-03T10:17:04Z</time>
      </trkpt>
      <trkpt lat="60.4764139927" lon="22.1619611103">
        <ele>39.2</ele>
        <time>2012-03-03T10:17:08Z</time>
      </trkpt>
      <trkpt lat="60.4765599216" lon="22.1620536465">
        <ele>39.4</ele>
        <time>2012-03-03T10:17:12Z</time>
      </trkpt>
      <trkpt lat="60.4767391266" lon="22.1622276547">
        <ele>39.6</ele>
        <time>2012-03-03T10:17:17Z</time>
      </trkpt>
      <trkpt lat="60.4769293958" lon="22.1623491923">
        <ele>39.6</ele>
        <time>2012-03-03T10:17:22Z</time>
      </trkpt>
      <trkpt lat="60.4771443915" lon="22.1623693088">
        <ele>39.2</ele>
        <time>2012-03-03T10:17:27Z</time>
      </trkpt>
      <trkpt lat="60.4773285418" lon="22.162444243">
        <ele>38.6</ele>
        <time>2012-03-03T10:17:31Z</time>
      </trkpt>
      <trkpt lat="60.4775083336" lon="22.1625695524">
        <ele>38.2</ele>
        <time>2012-03-03T10:17:35Z</time>
      </trkpt>
      <trkpt lat="60.4775495725" lon="22.1626082768">
        <ele>38</ele>
        <time>2012-03-03T10:17:36Z</time>
      </trkpt>
      <trkpt lat="60.4775921526" lon="22.1626538743">
        <ele>37.8</ele>
        <time>2012-03-03T10:17:37Z</time>
      </trkpt>
      <trkpt lat="60.477730873" lon="22.1627811954">
        <ele>37.2</ele>
        <time>2012-03-03T10:17:40Z</time>
      </trkpt>
      <trkpt lat="60.4778428552" lon="22.1629273757">
        <ele>36.6</ele>
        <time>2012-03-03T10:17:44Z</time>
      </trkpt>
      <trkpt lat="60.4778466271" lon="22.1629486658">
        <ele>36.2</ele>
        <time>2012-03-03T10:17:45Z</time>
      </trkpt>
      <trkpt lat="60.4778353115" lon="22.1629947662">
        <ele>35.6</ele>
        <time>2012-03-03T10:17:47Z</time>
      </trkpt>
      <trkpt lat="60.4777680049" lon="22.1631866279">
        <ele>35</ele>
        <time>2012-03-03T10:17:50Z</time>
      </trkpt>
      <trkpt lat="60.4776929868" lon="22.1633920683">
        <ele>34.6</ele>
        <time>2012-03-03T10:17:53Z</time>
      </trkpt>
      <trkpt lat="60.4775048132" lon="22.1636473809">
        <ele>34</ele>
        <time>2012-03-03T10:17:59Z</time>
      </trkpt>
      <trkpt lat="60.4774392667" lon="22.163770092">
        <ele>33.8</ele>
        <time>2012-03-03T10:18:02Z</time>
      </trkpt>
      <trkpt lat="60.4774230058" lon="22.1637525738">
        <ele>33.6</ele>
        <time>2012-03-03T10:18:06Z</time>
      </trkpt>
      <trkpt lat="60.4774608082" lon="22.1637140171">
        <ele>33.6</ele>
        <time>2012-03-03T10:18:09Z</time>
      </trkpt>
      <trkpt lat="60.4776466349" lon="22.1634443713">
        <ele>32.6</ele>
        <time>2012-03-03T10:18:14Z</time>
      </trkpt>
      <trkpt lat="60.477671613" lon="22.1633640727">
        <ele>32.4</ele>
        <time>2012-03-03T10:18:15Z</time>
      </trkpt>
      <trkpt lat="60.4777773926" lon="22.1630325686">
        <ele>31.4</ele>
        <time>2012-03-03T10:18:19Z</time>
      </trkpt>
      <trkpt lat="60.4777947431" lon="22.1629664354">
        <ele>31.2</ele>
        <time>2012-03-03T10:18:20Z</time>
      </trkpt>
      <trkpt lat="60.4778102496" lon="22.1629086003">
        <ele>31</ele>
        <time>2012-03-03T10:18:21Z</time>
      </trkpt>
      <trkpt lat="60.4778441125" lon="22.1628853824">
        <ele>29.4</ele>
        <time>2012-03-03T10:18:26Z</time>
      </trkpt>
    </trkseg>
  </trk>
</gpx>